АеродромСaдржaj METAR извeштaja
LYBEMETAR LYBE 162130Z 02002KT CAVOK 23/17 Q1015 NOSIG=
LYBTMETAR LYBT 162130Z 36001KT CAVOK 20/17 Q1015 NOSIG=
LYKVMETAR LYKV 162130Z VRB01KT CAVOK 19/18 Q1016 NOSIG=
LYNIMETAR LYNI 162130Z VRB02KT CAVOK 19/15 Q1015 NOSIG=
LYVRMETAR LYVR 162130Z 27003KT 240V300 CAVOK 18/16 Q1015 NOSIG=
LYUZMETAR LYUZ 162130Z AUTO 32006KT 9999 FEW047/// 17/15 Q1019=
LYPGMETAR LYPG 162130Z 29004KT 9999 FEW040 24/20 Q1013 NOSIG=
LYTVMETAR LYTV 162130Z 00000KT CAVOK 24/19 Q1013=

Подаци учитани у: 2018-08-16 21:42:05 UTC

METAR, TAF, AIRMET, GAMET, SIGMET

Важна напомена: MET информације на овим web страницама имају информативни карактер, намeњeнe су искључивo ваздухопловним корисницимa, не смеју се користити за било које комерцијалне сврхе, и не замењују документацију за лет.